sensor_id;sensor_type;location;lat;lon;timestamp;P1;durP1;ratioP1;P2;durP2;ratioP2
75718;SDS011;64340;48.534;-3.036;2022-11-02T00:01:38;12.23;;;3.60;;
75718;SDS011;64340;48.534;-3.036;2022-11-02T00:04:06;11.68;;;4.60;;
75718;SDS011;64340;48.534;-3.036;2022-11-02T00:06:32;10.27;;;3.55;;
75718;SDS011;64340;48.534;-3.036;2022-11-02T00:08:58;10.68;;;4.50;;
75718;SDS011;64340;48.534;-3.036;2022-11-02T00:11:23;9.43;;;4.00;;
75718;SDS011;64340;48.534;-3.036;2022-11-02T00:13:49;13.43;;;4.32;;
75718;SDS011;64340;48.534;-3.036;2022-11-02T00:16:15;10.70;;;3.88;;
75718;SDS011;64340;48.534;-3.036;2022-11-02T00:18:43;8.77;;;3.53;;
75718;SDS011;64340;48.534;-3.036;2022-11-02T00:21:11;10.63;;;3.40;;
75718;SDS011;64340;48.534;-3.036;2022-11-02T00:23:39;9.38;;;3.13;;
75718;SDS011;64340;48.534;-3.036;2022-11-02T00:26:06;8.50;;;3.30;;
75718;SDS011;64340;48.534;-3.036;2022-11-02T00:28:32;8.07;;;3.22;;
75718;SDS011;64340;48.534;-3.036;2022-11-02T00:30:58;8.00;;;2.97;;
75718;SDS011;64340;48.534;-3.036;2022-11-02T00:33:27;9.70;;;3.05;;
75718;SDS011;64340;48.534;-3.036;2022-11-02T00:35:58;6.00;;;2.85;;
75718;SDS011;64340;48.534;-3.036;2022-11-02T00:38:30;7.55;;;3.22;;
75718;SDS011;64340;48.534;-3.036;2022-11-02T00:40:56;7.32;;;2.58;;
75718;SDS011;64340;48.534;-3.036;2022-11-02T00:43:22;6.88;;;3.03;;
75718;SDS011;64340;48.534;-3.036;2022-11-02T00:45:48;7.00;;;3.50;;
75718;SDS011;64340;48.534;-3.036;2022-11-02T00:48:13;6.90;;;2.80;;
75718;SDS011;64340;48.534;-3.036;2022-11-02T00:50:39;12.35;;;3.55;;
75718;SDS011;64340;48.534;-3.036;2022-11-02T00:53:05;9.80;;;3.13;;
75718;SDS011;64340;48.534;-3.036;2022-11-02T00:55:31;8.80;;;3.08;;
75718;SDS011;64340;48.534;-3.036;2022-11-02T00:57:57;10.60;;;3.65;;
75718;SDS011;64340;48.534;-3.036;2022-11-02T01:00:22;7.20;;;2.85;;
75718;SDS011;64340;48.534;-3.036;2022-11-02T01:02:48;8.45;;;3.33;;
75718;SDS011;64340;48.534;-3.036;2022-11-02T01:05:14;7.13;;;2.63;;
75718;SDS011;64340;48.534;-3.036;2022-11-02T01:07:40;7.18;;;2.22;;
75718;SDS011;64340;48.534;-3.036;2022-11-02T01:10:06;6.72;;;2.85;;
75718;SDS011;64340;48.534;-3.036;2022-11-02T01:12:35;10.07;;;2.78;;
75718;SDS011;64340;48.534;-3.036;2022-11-02T01:15:01;7.18;;;2.63;;
75718;SDS011;64340;48.534;-3.036;2022-11-02T01:17:27;8.07;;;2.90;;
75718;SDS011;64340;48.534;-3.036;2022-11-02T01:19:53;6.85;;;2.55;;
75718;SDS011;64340;48.534;-3.036;2022-11-02T01:22:19;7.43;;;2.97;;
75718;SDS011;64340;48.534;-3.036;2022-11-02T01:24:45;6.05;;;2.30;;
75718;SDS011;64340;48.534;-3.036;2022-11-02T01:27:11;6.47;;;2.70;;
75718;SDS011;64340;48.534;-3.036;2022-11-02T01:29:36;5.53;;;2.08;;
75718;SDS011;64340;48.534;-3.036;2022-11-02T01:32:02;6.50;;;2.30;;
75718;SDS011;64340;48.534;-3.036;2022-11-02T01:34:28;5.22;;;2.00;;
75718;SDS011;64340;48.534;-3.036;2022-11-02T01:36:54;6.28;;;2.33;;
75718;SDS011;64340;48.534;-3.036;2022-11-02T01:39:19;5.75;;;2.40;;
75718;SDS011;64340;48.534;-3.036;2022-11-02T01:41:49;8.32;;;2.38;;
75718;SDS011;64340;48.534;-3.036;2022-11-02T01:44:29;5.45;;;2.03;;
75718;SDS011;64340;48.534;-3.036;2022-11-02T01:47:06;6.95;;;2.53;;
75718;SDS011;64340;48.534;-3.036;2022-11-02T01:49:37;6.18;;;2.20;;
75718;SDS011;64340;48.534;-3.036;2022-11-02T01:54:45;6.75;;;2.00;;
75718;SDS011;64340;48.534;-3.036;2022-11-02T01:57:16;6.78;;;2.35;;
75718;SDS011;64340;48.534;-3.036;2022-11-02T01:59:49;5.20;;;2.28;;
75718;SDS011;64340;48.534;-3.036;2022-11-02T02:02:20;5.15;;;2.00;;
75718;SDS011;64340;48.534;-3.036;2022-11-02T02:04:50;6.65;;;1.83;;
75718;SDS011;64340;48.534;-3.036;2022-11-02T02:07:21;6.30;;;1.88;;
75718;SDS011;64340;48.534;-3.036;2022-11-02T02:09:49;3.38;;;1.60;;
75718;SDS011;64340;48.534;-3.036;2022-11-02T02:12:15;6.38;;;2.20;;
75718;SDS011;64340;48.534;-3.036;2022-11-02T02:14:41;5.28;;;1.77;;
75718;SDS011;64340;48.534;-3.036;2022-11-02T02:19:40;5.72;;;1.92;;
75718;SDS011;64340;48.534;-3.036;2022-11-02T02:23:01;5.15;;;2.10;;
75718;SDS011;64340;48.534;-3.036;2022-11-02T02:29:02;5.00;;;1.65;;
75718;SDS011;64340;48.534;-3.036;2022-11-02T02:31:45;7.00;;;2.28;;
75718;SDS011;64340;48.534;-3.036;2022-11-02T02:42:38;5.07;;;1.73;;
75718;SDS011;64340;48.534;-3.036;2022-11-02T02:47:53;3.10;;;1.27;;
75718;SDS011;64340;48.534;-3.036;2022-11-02T02:50:28;5.82;;;1.77;;
75718;SDS011;64340;48.534;-3.036;2022-11-02T02:52:58;5.40;;;1.65;;
75718;SDS011;64340;48.534;-3.036;2022-11-02T02:55:29;4.82;;;1.85;;
75718;SDS011;64340;48.534;-3.036;2022-11-02T02:57:59;5.35;;;2.00;;
75718;SDS011;64340;48.534;-3.036;2022-11-02T03:00:26;5.50;;;1.80;;
75718;SDS011;64340;48.534;-3.036;2022-11-02T03:02:54;4.13;;;1.73;;
75718;SDS011;64340;48.534;-3.036;2022-11-02T03:08:11;4.63;;;1.50;;
75718;SDS011;64340;48.534;-3.036;2022-11-02T03:10:47;6.28;;;1.80;;
75718;SDS011;64340;48.534;-3.036;2022-11-02T03:16:21;5.55;;;1.17;;
75718;SDS011;64340;48.534;-3.036;2022-11-02T03:19:07;6.07;;;1.85;;
75718;SDS011;64340;48.534;-3.036;2022-11-02T03:21:44;4.60;;;1.42;;
75718;SDS011;64340;48.534;-3.036;2022-11-02T03:24:24;3.40;;;1.50;;
75718;SDS011;64340;48.534;-3.036;2022-11-02T03:29:59;4.28;;;1.65;;
75718;SDS011;64340;48.534;-3.036;2022-11-02T03:32:45;3.78;;;1.40;;
75718;SDS011;64340;48.534;-3.036;2022-11-02T03:35:31;5.05;;;1.40;;
75718;SDS011;64340;48.534;-3.036;2022-11-02T03:40:41;6.05;;;1.50;;
75718;SDS011;64340;48.534;-3.036;2022-11-02T03:43:10;4.40;;;1.48;;
75718;SDS011;64340;48.534;-3.036;2022-11-02T03:45:39;5.07;;;1.75;;
75718;SDS011;64340;48.534;-3.036;2022-11-02T03:48:13;6.30;;;1.23;;
75718;SDS011;64340;48.534;-3.036;2022-11-02T03:50:43;6.68;;;1.80;;
75718;SDS011;64340;48.534;-3.036;2022-11-02T03:53:14;5.15;;;1.52;;
75718;SDS011;64340;48.534;-3.036;2022-11-02T03:55:52;5.35;;;1.73;;
75718;SDS011;64340;48.534;-3.036;2022-11-02T03:58:21;5.18;;;1.98;;
75718;SDS011;64340;48.534;-3.036;2022-11-02T04:00:49;4.00;;;1.50;;
75718;SDS011;64340;48.534;-3.036;2022-11-02T04:03:25;3.20;;;1.23;;
75718;SDS011;64340;48.534;-3.036;2022-11-02T04:05:53;4.57;;;1.52;;
75718;SDS011;64340;48.534;-3.036;2022-11-02T04:08:21;4.15;;;1.05;;
75718;SDS011;64340;48.534;-3.036;2022-11-02T04:10:54;3.70;;;1.25;;
75718;SDS011;64340;48.534;-3.036;2022-11-02T04:13:38;3.00;;;1.02;;
75718;SDS011;64340;48.534;-3.036;2022-11-02T04:16:22;4.90;;;1.55;;
75718;SDS011;64340;48.534;-3.036;2022-11-02T04:18:48;5.05;;;1.77;;
75718;SDS011;64340;48.534;-3.036;2022-11-02T04:21:33;4.90;;;1.30;;
75718;SDS011;64340;48.534;-3.036;2022-11-02T04:23:58;4.60;;;1.40;;
75718;SDS011;64340;48.534;-3.036;2022-11-02T04:26:43;5.70;;;1.40;;
75718;SDS011;64340;48.534;-3.036;2022-11-02T04:29:09;3.20;;;1.00;;
75718;SDS011;64340;48.534;-3.036;2022-11-02T04:31:35;5.22;;;1.30;;
75718;SDS011;64340;48.534;-3.036;2022-11-02T04:34:01;5.38;;;1.30;;
75718;SDS011;64340;48.534;-3.036;2022-11-02T04:36:30;4.70;;;1.67;;
75718;SDS011;64340;48.534;-3.036;2022-11-02T04:38:56;6.15;;;1.40;;
75718;SDS011;64340;48.534;-3.036;2022-11-02T04:41:22;3.80;;;1.02;;
75718;SDS011;64340;48.534;-3.036;2022-11-02T04:44:08;5.80;;;1.58;;
75718;SDS011;64340;48.534;-3.036;2022-11-02T04:46:43;4.72;;;1.45;;
75718;SDS011;64340;48.534;-3.036;2022-11-02T04:49:10;3.25;;;1.25;;
75718;SDS011;64340;48.534;-3.036;2022-11-02T04:51:36;4.38;;;1.38;;
75718;SDS011;64340;48.534;-3.036;2022-11-02T04:54:04;4.28;;;1.40;;
75718;SDS011;64340;48.534;-3.036;2022-11-02T04:56:30;3.75;;;0.90;;
75718;SDS011;64340;48.534;-3.036;2022-11-02T04:58:57;4.63;;;1.20;;
75718;SDS011;64340;48.534;-3.036;2022-11-02T05:01:24;4.22;;;1.35;;
75718;SDS011;64340;48.534;-3.036;2022-11-02T05:03:52;5.50;;;1.20;;
75718;SDS011;64340;48.534;-3.036;2022-11-02T05:06:20;3.22;;;0.90;;
75718;SDS011;64340;48.534;-3.036;2022-11-02T05:08:46;4.80;;;1.10;;
75718;SDS011;64340;48.534;-3.036;2022-11-02T05:11:12;3.83;;;1.35;;
75718;SDS011;64340;48.534;-3.036;2022-11-02T05:13:39;5.63;;;1.42;;
75718;SDS011;64340;48.534;-3.036;2022-11-02T05:16:06;5.15;;;1.20;;
75718;SDS011;64340;48.534;-3.036;2022-11-02T05:18:36;3.85;;;0.90;;
75718;SDS011;64340;48.534;-3.036;2022-11-02T05:21:02;3.75;;;1.40;;
75718;SDS011;64340;48.534;-3.036;2022-11-02T05:23:28;4.72;;;1.27;;
75718;SDS011;64340;48.534;-3.036;2022-11-02T05:25:58;4.57;;;1.40;;
75718;SDS011;64340;48.534;-3.036;2022-11-02T05:28:25;4.50;;;1.35;;
75718;SDS011;64340;48.534;-3.036;2022-11-02T05:30:52;3.50;;;0.93;;
75718;SDS011;64340;48.534;-3.036;2022-11-02T05:33:19;3.40;;;0.98;;
75718;SDS011;64340;48.534;-3.036;2022-11-02T05:35:45;3.92;;;1.52;;
75718;SDS011;64340;48.534;-3.036;2022-11-02T05:38:11;4.72;;;1.67;;
75718;SDS011;64340;48.534;-3.036;2022-11-02T05:40:37;4.93;;;1.25;;
75718;SDS011;64340;48.534;-3.036;2022-11-02T05:43:05;4.82;;;1.05;;
75718;SDS011;64340;48.534;-3.036;2022-11-02T05:45:35;5.13;;;1.67;;
75718;SDS011;64340;48.534;-3.036;2022-11-02T05:48:01;5.63;;;1.30;;
75718;SDS011;64340;48.534;-3.036;2022-11-02T05:50:30;4.22;;;1.00;;
75718;SDS011;64340;48.534;-3.036;2022-11-02T05:52:56;3.92;;;0.98;;
75718;SDS011;64340;48.534;-3.036;2022-11-02T05:55:22;3.47;;;0.98;;
75718;SDS011;64340;48.534;-3.036;2022-11-02T05:57:52;3.60;;;0.90;;
75718;SDS011;64340;48.534;-3.036;2022-11-02T06:00:19;2.75;;;1.05;;
75718;SDS011;64340;48.534;-3.036;2022-11-02T06:02:47;4.32;;;1.00;;
75718;SDS011;64340;48.534;-3.036;2022-11-02T06:05:13;3.53;;;1.25;;
75718;SDS011;64340;48.534;-3.036;2022-11-02T06:07:39;3.20;;;1.20;;
75718;SDS011;64340;48.534;-3.036;2022-11-02T06:10:05;4.50;;;1.40;;
75718;SDS011;64340;48.534;-3.036;2022-11-02T06:12:32;4.05;;;0.80;;
75718;SDS011;64340;48.534;-3.036;2022-11-02T06:14:57;4.03;;;1.20;;
75718;SDS011;64340;48.534;-3.036;2022-11-02T06:17:23;4.93;;;1.38;;
75718;SDS011;64340;48.534;-3.036;2022-11-02T06:19:49;4.53;;;1.10;;
75718;SDS011;64340;48.534;-3.036;2022-11-02T06:22:15;3.05;;;0.80;;
75718;SDS011;64340;48.534;-3.036;2022-11-02T06:24:40;6.05;;;1.42;;
75718;SDS011;64340;48.534;-3.036;2022-11-02T06:27:06;3.55;;;0.90;;
75718;SDS011;64340;48.534;-3.036;2022-11-02T06:29:32;3.08;;;0.90;;
75718;SDS011;64340;48.534;-3.036;2022-11-02T06:31:57;3.42;;;0.98;;
75718;SDS011;64340;48.534;-3.036;2022-11-02T06:34:23;4.03;;;0.80;;
75718;SDS011;64340;48.534;-3.036;2022-11-02T06:36:49;4.13;;;1.08;;
75718;SDS011;64340;48.534;-3.036;2022-11-02T06:39:15;3.67;;;1.02;;
75718;SDS011;64340;48.534;-3.036;2022-11-02T06:41:40;3.70;;;1.15;;
75718;SDS011;64340;48.534;-3.036;2022-11-02T06:44:06;3.35;;;0.88;;
75718;SDS011;64340;48.534;-3.036;2022-11-02T06:46:32;2.83;;;0.82;;
75718;SDS011;64340;48.534;-3.036;2022-11-02T06:48:58;3.80;;;0.85;;
75718;SDS011;64340;48.534;-3.036;2022-11-02T06:51:23;2.40;;;0.80;;
75718;SDS011;64340;48.534;-3.036;2022-11-02T06:53:49;4.20;;;1.58;;
75718;SDS011;64340;48.534;-3.036;2022-11-02T06:56:15;4.82;;;1.10;;
75718;SDS011;64340;48.534;-3.036;2022-11-02T06:58:41;4.22;;;1.30;;
75718;SDS011;64340;48.534;-3.036;2022-11-02T07:01:07;3.83;;;1.10;;
75718;SDS011;64340;48.534;-3.036;2022-11-02T07:03:33;5.68;;;1.40;;
75718;SDS011;64340;48.534;-3.036;2022-11-02T07:06:00;3.92;;;1.15;;
75718;SDS011;64340;48.534;-3.036;2022-11-02T07:08:26;4.22;;;1.52;;
75718;SDS011;64340;48.534;-3.036;2022-11-02T07:10:52;4.47;;;1.60;;
75718;SDS011;64340;48.534;-3.036;2022-11-02T07:13:19;3.80;;;1.25;;
75718;SDS011;64340;48.534;-3.036;2022-11-02T07:15:45;2.97;;;1.00;;
75718;SDS011;64340;48.534;-3.036;2022-11-02T07:18:10;3.00;;;1.00;;
75718;SDS011;64340;48.534;-3.036;2022-11-02T07:20:37;3.55;;;0.80;;
75718;SDS011;64340;48.534;-3.036;2022-11-02T07:23:03;4.53;;;1.20;;
75718;SDS011;64340;48.534;-3.036;2022-11-02T07:25:30;3.53;;;1.05;;
75718;SDS011;64340;48.534;-3.036;2022-11-02T07:27:57;4.93;;;1.25;;
75718;SDS011;64340;48.534;-3.036;2022-11-02T07:30:24;3.72;;;1.00;;
75718;SDS011;64340;48.534;-3.036;2022-11-02T07:32:51;2.80;;;1.00;;
75718;SDS011;64340;48.534;-3.036;2022-11-02T07:35:17;4.47;;;1.08;;
75718;SDS011;64340;48.534;-3.036;2022-11-02T07:37:43;3.63;;;1.20;;
75718;SDS011;64340;48.534;-3.036;2022-11-02T07:40:10;3.03;;;1.27;;
75718;SDS011;64340;48.534;-3.036;2022-11-02T07:42:44;4.18;;;1.17;;
75718;SDS011;64340;48.534;-3.036;2022-11-02T07:45:10;4.60;;;1.45;;
75718;SDS011;64340;48.534;-3.036;2022-11-02T07:47:40;3.50;;;1.20;;
75718;SDS011;64340;48.534;-3.036;2022-11-02T07:50:07;4.20;;;1.48;;
75718;SDS011;64340;48.534;-3.036;2022-11-02T07:52:33;6.22;;;1.80;;
75718;SDS011;64340;48.534;-3.036;2022-11-02T07:54:59;5.75;;;1.60;;
75718;SDS011;64340;48.534;-3.036;2022-11-02T07:57:25;5.25;;;1.55;;
75718;SDS011;64340;48.534;-3.036;2022-11-02T07:59:52;4.72;;;1.35;;
75718;SDS011;64340;48.534;-3.036;2022-11-02T08:02:18;3.38;;;1.42;;
75718;SDS011;64340;48.534;-3.036;2022-11-02T08:04:44;3.97;;;1.20;;
75718;SDS011;64340;48.534;-3.036;2022-11-02T08:07:10;4.55;;;1.40;;
75718;SDS011;64340;48.534;-3.036;2022-11-02T08:09:36;4.65;;;1.55;;
75718;SDS011;64340;48.534;-3.036;2022-11-02T08:12:02;5.07;;;1.50;;
75718;SDS011;64340;48.534;-3.036;2022-11-02T08:14:31;6.68;;;1.70;;
75718;SDS011;64340;48.534;-3.036;2022-11-02T08:16:57;4.32;;;1.40;;
75718;SDS011;64340;48.534;-3.036;2022-11-02T08:19:23;5.40;;;1.55;;
75718;SDS011;64340;48.534;-3.036;2022-11-02T08:21:49;5.07;;;1.48;;
75718;SDS011;64340;48.534;-3.036;2022-11-02T08:24:15;4.82;;;1.45;;
75718;SDS011;64340;48.534;-3.036;2022-11-02T08:26:41;5.20;;;2.10;;
75718;SDS011;64340;48.534;-3.036;2022-11-02T08:29:07;4.35;;;2.13;;
75718;SDS011;64340;48.534;-3.036;2022-11-02T08:31:33;6.95;;;1.67;;
75718;SDS011;64340;48.534;-3.036;2022-11-02T08:33:59;6.30;;;2.00;;
75718;SDS011;64340;48.534;-3.036;2022-11-02T08:36:24;4.18;;;1.55;;
75718;SDS011;64340;48.534;-3.036;2022-11-02T08:38:50;7.53;;;2.08;;
75718;SDS011;64340;48.534;-3.036;2022-11-02T08:41:16;7.15;;;1.73;;
75718;SDS011;64340;48.534;-3.036;2022-11-02T08:43:42;8.10;;;1.92;;
75718;SDS011;64340;48.534;-3.036;2022-11-02T08:46:08;8.00;;;2.30;;
75718;SDS011;64340;48.534;-3.036;2022-11-02T08:48:34;7.63;;;2.15;;
75718;SDS011;64340;48.534;-3.036;2022-11-02T08:51:00;7.22;;;2.08;;
75718;SDS011;64340;48.534;-3.036;2022-11-02T08:53:27;7.25;;;2.40;;
75718;SDS011;64340;48.534;-3.036;2022-11-02T08:55:55;6.35;;;1.70;;
75718;SDS011;64340;48.534;-3.036;2022-11-02T08:58:23;7.00;;;2.33;;
75718;SDS011;64340;48.534;-3.036;2022-11-02T09:00:51;9.88;;;2.53;;
75718;SDS011;64340;48.534;-3.036;2022-11-02T09:03:17;7.72;;;2.42;;
75718;SDS011;64340;48.534;-3.036;2022-11-02T09:05:46;7.80;;;2.45;;
75718;SDS011;64340;48.534;-3.036;2022-11-02T09:08:12;6.43;;;1.85;;
75718;SDS011;64340;48.534;-3.036;2022-11-02T09:10:43;7.28;;;2.15;;
75718;SDS011;64340;48.534;-3.036;2022-11-02T09:13:14;6.15;;;1.80;;
75718;SDS011;64340;48.534;-3.036;2022-11-02T09:15:47;8.55;;;2.10;;
75718;SDS011;64340;48.534;-3.036;2022-11-02T09:18:14;7.10;;;2.28;;
75718;SDS011;64340;48.534;-3.036;2022-11-02T09:20:41;7.50;;;2.55;;
75718;SDS011;64340;48.534;-3.036;2022-11-02T09:23:07;7.93;;;2.63;;
75718;SDS011;64340;48.534;-3.036;2022-11-02T09:25:32;11.18;;;2.40;;
75718;SDS011;64340;48.534;-3.036;2022-11-02T09:27:58;9.77;;;2.90;;
75718;SDS011;64340;48.534;-3.036;2022-11-02T09:30:25;8.57;;;2.17;;
75718;SDS011;64340;48.534;-3.036;2022-11-02T09:33:00;10.52;;;2.50;;
75718;SDS011;64340;48.534;-3.036;2022-11-02T09:35:29;7.78;;;2.33;;
75718;SDS011;64340;48.534;-3.036;2022-11-02T09:37:56;9.75;;;1.98;;
75718;SDS011;64340;48.534;-3.036;2022-11-02T09:40:24;9.23;;;2.72;;
75718;SDS011;64340;48.534;-3.036;2022-11-02T09:45:51;6.72;;;2.30;;
75718;SDS011;64340;48.534;-3.036;2022-11-02T09:48:32;8.75;;;2.97;;
75718;SDS011;64340;48.534;-3.036;2022-11-02T09:51:05;9.48;;;2.60;;
75718;SDS011;64340;48.534;-3.036;2022-11-02T09:54:00;8.15;;;2.58;;
75718;SDS011;64340;48.534;-3.036;2022-11-02T09:56:33;9.90;;;2.55;;
75718;SDS011;64340;48.534;-3.036;2022-11-02T09:59:00;7.25;;;2.42;;
75718;SDS011;64340;48.534;-3.036;2022-11-02T10:04:31;6.97;;;2.33;;
75718;SDS011;64340;48.534;-3.036;2022-11-02T10:10:01;6.75;;;2.20;;
75718;SDS011;64340;48.534;-3.036;2022-11-02T10:13:01;8.43;;;2.45;;
75718;SDS011;64340;48.534;-3.036;2022-11-02T10:15:38;5.53;;;2.10;;
75718;SDS011;64340;48.534;-3.036;2022-11-02T10:18:12;8.02;;;2.65;;
75718;SDS011;64340;48.534;-3.036;2022-11-02T10:20:53;6.53;;;2.20;;
75718;SDS011;64340;48.534;-3.036;2022-11-02T10:23:27;7.18;;;2.58;;
75718;SDS011;64340;48.534;-3.036;2022-11-02T10:25:58;7.20;;;2.17;;
75718;SDS011;64340;48.534;-3.036;2022-11-02T10:28:28;9.02;;;2.95;;
75718;SDS011;64340;48.534;-3.036;2022-11-02T10:31:01;15.63;;;2.67;;
75718;SDS011;64340;48.534;-3.036;2022-11-02T10:33:28;10.15;;;2.35;;
75718;SDS011;64340;48.534;-3.036;2022-11-02T10:38:37;10.07;;;2.40;;
75718;SDS011;64340;48.534;-3.036;2022-11-02T10:41:25;12.75;;;2.95;;
75718;SDS011;64340;48.534;-3.036;2022-11-02T10:44:15;11.13;;;2.63;;
75718;SDS011;64340;48.534;-3.036;2022-11-02T10:47:20;9.52;;;2.55;;
75718;SDS011;64340;48.534;-3.036;2022-11-02T10:53:10;7.47;;;1.88;;
75718;SDS011;64340;48.534;-3.036;2022-11-02T10:56:01;10.13;;;2.50;;
75718;SDS011;64340;48.534;-3.036;2022-11-02T10:58:30;9.88;;;2.13;;
75718;SDS011;64340;48.534;-3.036;2022-11-02T11:01:06;10.68;;;2.55;;
75718;SDS011;64340;48.534;-3.036;2022-11-02T11:06:30;6.93;;;2.10;;
75718;SDS011;64340;48.534;-3.036;2022-11-02T11:09:12;7.80;;;2.03;;
75718;SDS011;64340;48.534;-3.036;2022-11-02T11:14:28;6.30;;;1.95;;
75718;SDS011;64340;48.534;-3.036;2022-11-02T11:17:02;5.90;;;1.58;;
75718;SDS011;64340;48.534;-3.036;2022-11-02T11:20:05;9.85;;;2.50;;
75718;SDS011;64340;48.534;-3.036;2022-11-02T11:22:48;5.40;;;2.25;;
75718;SDS011;64340;48.534;-3.036;2022-11-02T11:28:54;8.40;;;2.13;;
75718;SDS011;64340;48.534;-3.036;2022-11-02T11:31:21;5.05;;;1.80;;
75718;SDS011;64340;48.534;-3.036;2022-11-02T11:34:18;6.30;;;1.85;;
75718;SDS011;64340;48.534;-3.036;2022-11-02T11:36:49;7.47;;;2.25;;
75718;SDS011;64340;48.534;-3.036;2022-11-02T11:39:27;5.50;;;1.70;;
75718;SDS011;64340;48.534;-3.036;2022-11-02T11:41:55;6.90;;;1.80;;
75718;SDS011;64340;48.534;-3.036;2022-11-02T11:44:24;5.72;;;1.60;;
75718;SDS011;64340;48.534;-3.036;2022-11-02T11:46:51;6.05;;;1.50;;
75718;SDS011;64340;48.534;-3.036;2022-11-02T11:49:23;5.40;;;1.60;;
75718;SDS011;64340;48.534;-3.036;2022-11-02T11:51:57;6.28;;;1.35;;
75718;SDS011;64340;48.534;-3.036;2022-11-02T11:54:25;4.22;;;1.40;;
75718;SDS011;64340;48.534;-3.036;2022-11-02T11:56:58;6.30;;;2.17;;
75718;SDS011;64340;48.534;-3.036;2022-11-02T12:00:26;7.45;;;2.00;;
75718;SDS011;64340;48.534;-3.036;2022-11-02T12:03:03;4.72;;;1.80;;
75718;SDS011;64340;48.534;-3.036;2022-11-02T12:11:37;4.18;;;1.27;;
75718;SDS011;64340;48.534;-3.036;2022-11-02T12:14:28;6.03;;;1.65;;
75718;SDS011;64340;48.534;-3.036;2022-11-02T12:17:32;6.57;;;2.00;;
75718;SDS011;64340;48.534;-3.036;2022-11-02T12:32:46;4.65;;;1.40;;
75718;SDS011;64340;48.534;-3.036;2022-11-02T12:41:02;4.07;;;1.30;;
75718;SDS011;64340;48.534;-3.036;2022-11-02T12:43:45;4.78;;;1.40;;
75718;SDS011;64340;48.534;-3.036;2022-11-02T12:49:07;5.88;;;1.60;;
75718;SDS011;64340;48.534;-3.036;2022-11-02T12:54:39;6.47;;;1.90;;
75718;SDS011;64340;48.534;-3.036;2022-11-02T12:57:16;3.75;;;1.33;;
75718;SDS011;64340;48.534;-3.036;2022-11-02T12:59:45;3.58;;;1.40;;
75718;SDS011;64340;48.534;-3.036;2022-11-02T13:02:17;6.00;;;1.98;;
75718;SDS011;64340;48.534;-3.036;2022-11-02T13:05:08;5.78;;;1.48;;
75718;SDS011;64340;48.534;-3.036;2022-11-02T13:07:46;4.50;;;1.45;;
75718;SDS011;64340;48.534;-3.036;2022-11-02T13:10:21;3.10;;;1.48;;
75718;SDS011;64340;48.534;-3.036;2022-11-02T13:12:57;3.78;;;1.58;;
75718;SDS011;64340;48.534;-3.036;2022-11-02T13:15:25;4.45;;;1.42;;
75718;SDS011;64340;48.534;-3.036;2022-11-02T13:20:29;5.28;;;1.85;;
75718;SDS011;64340;48.534;-3.036;2022-11-02T13:23:05;4.00;;;1.48;;
75718;SDS011;64340;48.534;-3.036;2022-11-02T13:25:58;4.65;;;1.40;;
75718;SDS011;64340;48.534;-3.036;2022-11-02T13:31:22;4.20;;;1.50;;
75718;SDS011;64340;48.534;-3.036;2022-11-02T13:36:27;3.88;;;1.30;;
75718;SDS011;64340;48.534;-3.036;2022-11-02T13:38:58;3.85;;;1.35;;
75718;SDS011;64340;48.534;-3.036;2022-11-02T13:47:02;7.60;;;2.67;;
75718;SDS011;64340;48.534;-3.036;2022-11-02T13:49:59;10.07;;;2.50;;
75718;SDS011;64340;48.534;-3.036;2022-11-02T13:55:06;9.10;;;2.55;;
75718;SDS011;64340;48.534;-3.036;2022-11-02T13:57:39;6.35;;;2.13;;
75718;SDS011;64340;48.534;-3.036;2022-11-02T14:02:48;8.68;;;2.33;;
75718;SDS011;64340;48.534;-3.036;2022-11-02T14:05:31;11.57;;;2.65;;
75718;SDS011;64340;48.534;-3.036;2022-11-02T14:08:04;8.25;;;2.35;;
75718;SDS011;64340;48.534;-3.036;2022-11-02T14:10:35;11.23;;;3.05;;
75718;SDS011;64340;48.534;-3.036;2022-11-02T14:13:02;8.48;;;2.72;;
75718;SDS011;64340;48.534;-3.036;2022-11-02T14:23:34;7.90;;;2.28;;
75718;SDS011;64340;48.534;-3.036;2022-11-02T14:26:01;7.50;;;2.45;;
75718;SDS011;64340;48.534;-3.036;2022-11-02T14:28:30;11.57;;;2.40;;
75718;SDS011;64340;48.534;-3.036;2022-11-02T14:41:26;9.60;;;2.83;;
75718;SDS011;64340;48.534;-3.036;2022-11-02T14:47:15;9.82;;;3.25;;
75718;SDS011;64340;48.534;-3.036;2022-11-02T14:49:50;10.13;;;3.13;;
75718;SDS011;64340;48.534;-3.036;2022-11-02T14:55:07;10.20;;;3.30;;
75718;SDS011;64340;48.534;-3.036;2022-11-02T14:57:48;11.23;;;2.90;;
75718;SDS011;64340;48.534;-3.036;2022-11-02T15:00:22;11.48;;;2.60;;
75718;SDS011;64340;48.534;-3.036;2022-11-02T15:02:51;8.77;;;2.97;;
75718;SDS011;64340;48.534;-3.036;2022-11-02T15:05:34;8.00;;;2.60;;
75718;SDS011;64340;48.534;-3.036;2022-11-02T15:08:03;6.28;;;2.53;;
75718;SDS011;64340;48.534;-3.036;2022-11-02T15:18:21;9.15;;;3.20;;
75718;SDS011;64340;48.534;-3.036;2022-11-02T15:23:52;6.30;;;2.67;;
75718;SDS011;64340;48.534;-3.036;2022-11-02T15:29:19;6.88;;;2.42;;
75718;SDS011;64340;48.534;-3.036;2022-11-02T15:31:48;7.88;;;2.20;;
75718;SDS011;64340;48.534;-3.036;2022-11-02T15:34:23;6.28;;;2.38;;
75718;SDS011;64340;48.534;-3.036;2022-11-02T15:36:58;6.40;;;2.22;;
75718;SDS011;64340;48.534;-3.036;2022-11-02T15:39:25;6.00;;;2.17;;
75718;SDS011;64340;48.534;-3.036;2022-11-02T15:42:11;7.25;;;2.35;;
75718;SDS011;64340;48.534;-3.036;2022-11-02T15:47:33;6.90;;;2.17;;
75718;SDS011;64340;48.534;-3.036;2022-11-02T15:55:51;6.80;;;2.30;;
75718;SDS011;64340;48.534;-3.036;2022-11-02T16:01:29;5.05;;;2.10;;
75718;SDS011;64340;48.534;-3.036;2022-11-02T16:03:59;6.75;;;2.50;;
75718;SDS011;64340;48.534;-3.036;2022-11-02T16:06:37;6.30;;;2.72;;
75718;SDS011;64340;48.534;-3.036;2022-11-02T16:12:09;5.57;;;1.92;;
75718;SDS011;64340;48.534;-3.036;2022-11-02T16:14:37;7.10;;;2.00;;
75718;SDS011;64340;48.534;-3.036;2022-11-02T16:17:03;5.18;;;2.03;;
75718;SDS011;64340;48.534;-3.036;2022-11-02T16:19:29;6.03;;;1.88;;
75718;SDS011;64340;48.534;-3.036;2022-11-02T16:21:55;5.82;;;2.30;;
75718;SDS011;64340;48.534;-3.036;2022-11-02T16:24:21;6.03;;;1.90;;
75718;SDS011;64340;48.534;-3.036;2022-11-02T16:26:47;6.85;;;2.20;;
75718;SDS011;64340;48.534;-3.036;2022-11-02T16:29:32;6.97;;;2.17;;
75718;SDS011;64340;48.534;-3.036;2022-11-02T16:31:58;3.97;;;2.00;;
75718;SDS011;64340;48.534;-3.036;2022-11-02T16:34:27;6.05;;;2.30;;
75718;SDS011;64340;48.534;-3.036;2022-11-02T16:36:55;7.57;;;2.63;;
75718;SDS011;64340;48.534;-3.036;2022-11-02T16:39:25;5.88;;;1.90;;
75718;SDS011;64340;48.534;-3.036;2022-11-02T16:41:54;7.78;;;2.40;;
75718;SDS011;64340;48.534;-3.036;2022-11-02T16:54:45;5.90;;;1.83;;
75718;SDS011;64340;48.534;-3.036;2022-11-02T16:57:16;8.48;;;2.70;;
75718;SDS011;64340;48.534;-3.036;2022-11-02T17:02:47;5.38;;;1.98;;
75718;SDS011;64340;48.534;-3.036;2022-11-02T17:05:16;5.65;;;1.90;;
75718;SDS011;64340;48.534;-3.036;2022-11-02T17:07:56;7.75;;;2.38;;
75718;SDS011;64340;48.534;-3.036;2022-11-02T17:10:34;6.53;;;2.08;;
75718;SDS011;64340;48.534;-3.036;2022-11-02T17:13:03;4.05;;;1.85;;
75718;SDS011;64340;48.534;-3.036;2022-11-02T17:15:33;7.22;;;2.17;;
75718;SDS011;64340;48.534;-3.036;2022-11-02T17:20:32;3.92;;;1.70;;
75718;SDS011;64340;48.534;-3.036;2022-11-02T17:23:00;8.63;;;2.10;;
75718;SDS011;64340;48.534;-3.036;2022-11-02T17:25:31;5.45;;;2.17;;
75718;SDS011;64340;48.534;-3.036;2022-11-02T17:28:43;5.28;;;1.80;;
75718;SDS011;64340;48.534;-3.036;2022-11-02T17:30:57;4.90;;;1.63;;
75718;SDS011;64340;48.534;-3.036;2022-11-02T17:33:29;4.75;;;1.88;;
75718;SDS011;64340;48.534;-3.036;2022-11-02T17:36:03;5.32;;;2.30;;
75718;SDS011;64340;48.534;-3.036;2022-11-02T17:38:30;4.32;;;2.15;;
75718;SDS011;64340;48.534;-3.036;2022-11-02T17:40:57;5.25;;;1.70;;
75718;SDS011;64340;48.534;-3.036;2022-11-02T17:43:24;6.47;;;1.95;;
75718;SDS011;64340;48.534;-3.036;2022-11-02T17:45:57;5.07;;;1.73;;
75718;SDS011;64340;48.534;-3.036;2022-11-02T17:48:24;4.80;;;1.42;;